Time;durP1;ratioP1;P1;durP2;ratioP2;P2;SDS_P1;SDS_P2;PMS_P1;PMS_P2;Temp;Humidity;BMP_temperature;BMP_pressure;BME280_temperature;BME280_humidity;BME280_pressure;Samples;Min_cycle;Max_cycle;Signal;HPM_P1;HPM_P2
2023/11/28 00:00:00;;;;;;;5.03;2.80;;;;;;;;;;688872;28;1717;-69
2023/11/28 00:00:20;;;;;;;5.30;2.80;;;;;;;;;;689729;28;4263;-69
2023/11/28 00:00:41;;;;;;;5.03;2.70;;;;;;;;;;690461;28;900;-69
2023/11/28 00:01:02;;;;;;;4.90;2.60;;;;;;;;;;689471;28;1418;-69
2023/11/28 00:01:22;;;;;;;4.97;2.78;;;;;;;;;;687798;28;1254;-71
2023/11/28 00:01:42;;;;;;;4.77;2.63;;;;;;;;;;690315;28;790;-69
2023/11/28 00:02:03;;;;;;;4.60;2.70;;;;;;;;;;689982;28;2145;-69
2023/11/28 00:02:23;;;;;;;4.40;2.67;;;;;;;;;;687424;28;1228;-69
2023/11/28 00:02:43;;;;;;;4.83;2.83;;;;;;;;;;687555;28;857;-69
2023/11/28 00:03:04;;;;;;;4.80;2.50;;;;;;;;;;687794;28;1807;-69
2023/11/28 00:03:24;;;;;;;4.60;2.60;;;;;;;;;;689371;28;4362;-69
2023/11/28 00:03:44;;;;;;;5.03;2.37;;;;;;;;;;690772;28;789;-69
2023/11/28 00:04:05;;;;;;;4.73;2.53;;;;;;;;;;690501;28;1868;-69
2023/11/28 00:04:25;;;;;;;4.18;2.45;;;;;;;;;;689668;28;928;-69
2023/11/28 00:04:46;;;;;;;4.40;2.50;;;;;;;;;;690406;28;817;-68
2023/11/28 00:05:07;;;;;;;4.32;2.40;;;;;;;;;;690260;28;1622;-69
2023/11/28 00:05:27;;;;;;;4.63;2.40;;;;;;;;;;690287;28;833;-69
2023/11/28 00:05:48;;;;;;;4.53;2.30;;;;;;;;;;690405;28;1197;-71
2023/11/28 00:06:19;;;;;;;4.60;2.30;;;;;;;;;;689269;28;1567;-69
2023/11/28 00:06:39;;;;;;;3.85;2.30;;;;;;;;;;688576;28;4928;-69
2023/11/28 00:07:01;;;;;;;4.37;2.70;;;;;;;;;;689556;28;1724;-69
2023/11/28 00:07:21;;;;;;;4.25;2.42;;;;;;;;;;690106;28;1263;-70
2023/11/28 00:07:42;;;;;;;3.92;2.30;;;;;;;;;;688612;28;3555;-70
2023/11/28 00:08:03;;;;;;;4.20;2.40;;;;;;;;;;687895;28;2374;-70
2023/11/28 00:08:28;;;;;;;4.30;2.60;;;;;;;;;;688890;28;1360;-70
2023/11/28 00:08:49;;;;;;;4.63;2.50;;;;;;;;;;689892;28;868;-69
2023/11/28 00:09:11;;;;;;;4.97;2.30;;;;;;;;;;689994;28;1880;-69
2023/11/28 00:09:32;;;;;;;4.90;2.53;;;;;;;;;;689566;28;4232;-70
2023/11/28 00:09:54;;;;;;;4.35;2.47;;;;;;;;;;689874;28;1255;-69
2023/11/28 00:10:15;;;;;;;4.38;2.70;;;;;;;;;;689375;28;1835;-69
2023/11/28 00:10:36;;;;;;;4.60;2.80;;;;;;;;;;688906;28;1254;-69
2023/11/28 00:10:57;;;;;;;3.95;2.33;;;;;;;;;;688362;28;2322;-69
2023/11/28 00:11:19;;;;;;;4.00;2.30;;;;;;;;;;687543;28;1448;-69
2023/11/28 00:11:39;;;;;;;4.15;2.50;;;;;;;;;;686067;28;6037;-69
2023/11/28 00:12:00;;;;;;;4.47;2.70;;;;;;;;;;683903;28;1776;-69
2023/11/28 00:12:22;;;;;;;4.43;2.70;;;;;;;;;;684609;28;4515;-68
2023/11/28 00:12:44;;;;;;;4.10;2.45;;;;;;;;;;687318;28;829;-69
2023/11/28 00:13:04;;;;;;;4.32;2.30;;;;;;;;;;683188;28;1467;-69
2023/11/28 00:13:28;;;;;;;4.07;2.40;;;;;;;;;;684032;28;1224;-69
2023/11/28 00:13:49;;;;;;;4.00;2.28;;;;;;;;;;687484;28;937;-69
2023/11/28 00:14:09;;;;;;;4.22;2.53;;;;;;;;;;689447;28;1760;-70
2023/11/28 00:14:29;;;;;;;4.80;2.53;;;;;;;;;;689008;28;794;-69
2023/11/28 00:14:50;;;;;;;3.95;2.22;;;;;;;;;;690553;28;1318;-69
2023/11/28 00:15:10;;;;;;;3.90;2.30;;;;;;;;;;690367;28;965;-69
2023/11/28 00:15:32;;;;;;;3.70;2.30;;;;;;;;;;691516;28;4346;-69
2023/11/28 00:15:52;;;;;;;3.92;2.33;;;;;;;;;;689358;28;999;-69
2023/11/28 00:16:12;;;;;;;4.30;2.50;;;;;;;;;;691476;28;1798;-70
2023/11/28 00:16:33;;;;;;;4.27;2.40;;;;;;;;;;689785;28;798;-69
2023/11/28 00:16:53;;;;;;;4.00;2.47;;;;;;;;;;688924;28;998;-69
2023/11/28 00:17:13;;;;;;;4.43;2.58;;;;;;;;;;688581;28;2371;-69
2023/11/28 00:17:34;;;;;;;4.20;2.40;;;;;;;;;;690442;28;881;-69
2023/11/28 00:17:54;;;;;;;3.85;2.10;;;;;;;;;;689412;28;1331;-69
2023/11/28 00:18:15;;;;;;;4.13;2.30;;;;;;;;;;688649;28;2330;-69
2023/11/28 00:18:35;;;;;;;4.40;2.45;;;;;;;;;;688833;28;4408;-70
2023/11/28 00:18:56;;;;;;;4.10;2.20;;;;;;;;;;687484;28;1248;-69
2023/11/28 00:19:17;;;;;;;3.92;2.20;;;;;;;;;;687819;28;2367;-69
2023/11/28 00:19:37;;;;;;;4.00;2.55;;;;;;;;;;690007;28;1986;-72
2023/11/28 00:19:57;;;;;;;3.73;2.30;;;;;;;;;;688653;28;2296;-69
2023/11/28 00:20:17;;;;;;;3.87;2.07;;;;;;;;;;690053;28;1044;-68
2023/11/28 00:20:38;;;;;;;3.80;2.03;;;;;;;;;;689869;28;1354;-68
2023/11/28 00:20:58;;;;;;;3.67;2.10;;;;;;;;;;689320;28;990;-68
2023/11/28 00:21:18;;;;;;;3.70;2.20;;;;;;;;;;689901;28;4326;-69
2023/11/28 00:21:39;;;;;;;3.80;2.30;;;;;;;;;;689960;28;940;-69
2023/11/28 00:21:59;;;;;;;5.30;2.50;;;;;;;;;;688674;28;1819;-68
2023/11/28 00:22:19;;;;;;;4.88;2.40;;;;;;;;;;689674;28;944;-68
2023/11/28 00:22:40;;;;;;;4.33;2.10;;;;;;;;;;690390;28;1313;-68
2023/11/28 00:23:00;;;;;;;4.22;2.22;;;;;;;;;;688464;28;3975;-69
2023/11/28 00:23:20;;;;;;;3.90;2.50;;;;;;;;;;689057;28;821;-68
2023/11/28 00:23:41;;;;;;;4.60;2.63;;;;;;;;;;688823;28;1156;-68
2023/11/28 00:24:04;;;;;;;3.92;2.22;;;;;;;;;;689173;28;1828;-69
2023/11/28 00:24:24;;;;;;;3.95;2.40;;;;;;;;;;689399;28;4520;-69
2023/11/28 00:24:44;;;;;;;4.30;2.50;;;;;;;;;;689738;28;836;-69
2023/11/28 00:25:05;;;;;;;4.47;2.70;;;;;;;;;;689649;28;2280;-69
2023/11/28 00:25:25;;;;;;;4.23;2.70;;;;;;;;;;686688;28;1279;-69
2023/11/28 00:25:46;;;;;;;4.30;2.22;;;;;;;;;;687728;28;936;-68
2023/11/28 00:26:06;;;;;;;4.40;2.30;;;;;;;;;;688831;28;1716;-68
2023/11/28 00:26:26;;;;;;;4.70;2.50;;;;;;;;;;689643;28;924;-70
2023/11/28 00:26:53;;;;;;;3.85;2.20;;;;;;;;;;689837;28;1290;-68
2023/11/28 00:27:13;;;;;;;4.40;2.38;;;;;;;;;;687339;28;1960;-69
2023/11/28 00:27:34;;;;;;;4.07;2.30;;;;;;;;;;685565;28;4299;-69
2023/11/28 00:27:56;;;;;;;4.07;2.37;;;;;;;;;;683051;28;1336;-69
2023/11/28 00:28:17;;;;;;;3.90;2.20;;;;;;;;;;680239;28;1932;-70
2023/11/28 00:28:37;;;;;;;3.50;1.88;;;;;;;;;;683749;28;1585;-70
2023/11/28 00:28:58;;;;;;;4.00;2.20;;;;;;;;;;681589;28;1157;-69
2023/11/28 00:29:18;;;;;;;3.88;2.20;;;;;;;;;;678821;29;966;-69
2023/11/28 00:29:39;;;;;;;3.92;2.38;;;;;;;;;;682074;28;1396;-69
2023/11/28 00:29:59;;;;;;;3.97;2.33;;;;;;;;;;683548;28;1310;-69
2023/11/28 00:30:20;;;;;;;4.18;2.20;;;;;;;;;;681060;28;4319;-69
2023/11/28 00:30:40;;;;;;;4.03;2.30;;;;;;;;;;681031;29;1133;-70
2023/11/28 00:31:01;;;;;;;3.80;2.30;;;;;;;;;;680762;28;1823;-69
2023/11/28 00:31:21;;;;;;;4.00;2.30;;;;;;;;;;682120;28;1352;-68
2023/11/28 00:31:42;;;;;;;4.27;2.53;;;;;;;;;;683349;28;1245;-69
2023/11/28 00:32:03;;;;;;;4.50;2.40;;;;;;;;;;681031;28;1922;-68
2023/11/28 00:32:23;;;;;;;4.65;2.30;;;;;;;;;;684292;28;770;-69
2023/11/28 00:32:45;;;;;;;4.03;2.20;;;;;;;;;;685083;28;869;-69
2023/11/28 00:33:05;;;;;;;4.00;2.30;;;;;;;;;;686167;28;2216;-69
2023/11/28 00:33:25;;;;;;;3.87;2.23;;;;;;;;;;689372;28;4262;-69
2023/11/28 00:33:47;;;;;;;3.80;2.10;;;;;;;;;;685262;28;1330;-69
2023/11/28 00:34:07;;;;;;;3.75;2.22;;;;;;;;;;687396;28;2109;-69
2023/11/28 00:34:27;;;;;;;4.13;2.47;;;;;;;;;;684834;28;1322;-69
2023/11/28 00:34:47;;;;;;;4.10;2.47;;;;;;;;;;684466;28;834;-69
2023/11/28 00:35:08;;;;;;;4.05;2.38;;;;;;;;;;686166;28;2383;-69
2023/11/28 00:35:28;;;;;;;4.60;2.37;;;;;;;;;;687257;28;1393;-69
2023/11/28 00:35:48;;;;;;;3.80;2.40;;;;;;;;;;686477;28;893;-69
2023/11/28 00:36:09;;;;;;;4.30;2.40;;;;;;;;;;689135;28;2304;-68
2023/11/28 00:36:29;;;;;;;4.33;2.30;;;;;;;;;;688697;28;4273;-68
2023/11/28 00:36:50;;;;;;;4.28;2.40;;;;;;;;;;689679;28;923;-68
2023/11/28 00:37:10;;;;;;;4.30;2.33;;;;;;;;;;688827;28;1842;-69
2023/11/28 00:37:31;;;;;;;3.90;2.10;;;;;;;;;;689999;28;782;-69
2023/11/28 00:37:53;;;;;;;4.05;2.40;;;;;;;;;;689408;28;1400;-69
2023/11/28 00:38:13;;;;;;;4.43;2.17;;;;;;;;;;688439;28;1729;-68
2023/11/28 00:38:33;;;;;;;4.60;2.37;;;;;;;;;;690073;28;829;-68
2023/11/28 00:38:54;;;;;;;3.77;2.20;;;;;;;;;;688866;28;1245;-69
2023/11/28 00:39:14;;;;;;;3.92;2.20;;;;;;;;;;689078;28;1887;-68
2023/11/28 00:39:35;;;;;;;4.20;2.17;;;;;;;;;;689445;28;4223;-68
2023/11/28 00:39:56;;;;;;;4.30;2.38;;;;;;;;;;686684;28;1446;-69
2023/11/28 00:40:16;;;;;;;4.23;2.30;;;;;;;;;;686057;28;1824;-69
2023/11/28 00:40:37;;;;;;;4.10;2.38;;;;;;;;;;687084;28;997;-70
2023/11/28 00:40:57;;;;;;;4.40;2.70;;;;;;;;;;687665;28;754;-68
2023/11/28 00:41:17;;;;;;;4.17;2.37;;;;;;;;;;688529;28;2405;-69
2023/11/28 00:41:37;;;;;;;4.10;2.10;;;;;;;;;;689915;28;1295;-68
2023/11/28 00:41:58;;;;;;;3.93;2.30;;;;;;;;;;687467;28;1267;-69
2023/11/28 00:42:19;;;;;;;3.78;2.15;;;;;;;;;;684461;28;4460;-69
2023/11/28 00:42:40;;;;;;;3.90;2.10;;;;;;;;;;684320;28;1154;-69
2023/11/28 00:43:00;;;;;;;3.87;2.13;;;;;;;;;;682327;28;1744;-69
2023/11/28 00:43:20;;;;;;;3.83;2.17;;;;;;;;;;684828;28;968;-69
2023/11/28 00:43:41;;;;;;;4.27;2.10;;;;;;;;;;684941;28;1424;-68
2023/11/28 00:44:01;;;;;;;4.10;2.20;;;;;;;;;;685778;28;938;-70
2023/11/28 00:44:21;;;;;;;3.93;2.23;;;;;;;;;;686653;28;1186;-69
2023/11/28 00:44:42;;;;;;;3.70;2.10;;;;;;;;;;684273;28;1402;-68
2023/11/28 00:45:04;;;;;;;3.80;2.17;;;;;;;;;;684924;28;2671;-68
2023/11/28 00:45:25;;;;;;;3.58;2.05;;;;;;;;;;684719;28;4257;-70
2023/11/28 00:45:47;;;;;;;3.28;1.98;;;;;;;;;;683015;28;978;-68
2023/11/28 00:46:08;;;;;;;3.53;2.00;;;;;;;;;;682536;28;2390;-68
2023/11/28 00:46:28;;;;;;;4.00;2.03;;;;;;;;;;686357;28;1235;-68
2023/11/28 00:46:49;;;;;;;4.00;2.10;;;;;;;;;;689982;28;952;-68
2023/11/28 00:47:09;;;;;;;4.00;2.30;;;;;;;;;;689649;28;1417;-68
2023/11/28 00:47:29;;;;;;;3.78;2.20;;;;;;;;;;688685;28;1310;-68
2023/11/28 00:47:50;;;;;;;3.70;2.10;;;;;;;;;;687324;28;1315;-68
2023/11/28 00:48:10;;;;;;;3.65;2.13;;;;;;;;;;686069;28;2277;-68
2023/11/28 00:48:30;;;;;;;3.97;2.30;;;;;;;;;;683116;28;4250;-68
2023/11/28 00:48:51;;;;;;;3.70;2.00;;;;;;;;;;685034;28;727;-67
2023/11/28 00:49:13;;;;;;;4.45;2.40;;;;;;;;;;686501;28;1951;-69
2023/11/28 00:49:34;;;;;;;3.80;2.13;;;;;;;;;;683982;28;1559;-69
2023/11/28 00:49:55;;;;;;;3.95;2.20;;;;;;;;;;684806;28;992;-68
2023/11/28 00:50:17;;;;;;;4.30;2.50;;;;;;;;;;688414;28;1710;-69
2023/11/28 00:50:38;;;;;;;4.18;2.45;;;;;;;;;;686586;28;1806;-69
2023/11/28 00:50:58;;;;;;;3.80;2.10;;;;;;;;;;687603;28;1019;-69
2023/11/28 00:51:18;;;;;;;4.35;2.25;;;;;;;;;;686358;28;4443;-70
2023/11/28 00:51:42;;;;;;;4.80;2.50;;;;;;;;;;689522;28;1306;-69
2023/11/28 00:52:03;;;;;;;4.10;2.40;;;;;;;;;;689101;28;1717;-69
2023/11/28 00:52:24;;;;;;;3.97;2.13;;;;;;;;;;687327;28;1400;-69
2023/11/28 00:52:45;;;;;;;4.18;2.20;;;;;;;;;;686803;28;1421;-69
2023/11/28 00:53:05;;;;;;;3.95;2.38;;;;;;;;;;686698;28;2289;-69
2023/11/28 00:53:25;;;;;;;4.30;2.30;;;;;;;;;;687250;28;920;-68
2023/11/28 00:53:47;;;;;;;4.65;2.40;;;;;;;;;;686947;28;1359;-68
2023/11/28 00:54:07;;;;;;;4.53;2.40;;;;;;;;;;687459;28;1734;-68
2023/11/28 00:54:27;;;;;;;4.40;2.47;;;;;;;;;;686458;28;4272;-69
2023/11/28 00:54:48;;;;;;;4.50;2.40;;;;;;;;;;684722;28;1439;-69
2023/11/28 00:55:08;;;;;;;3.93;2.13;;;;;;;;;;684094;28;937;-70
2023/11/28 00:55:28;;;;;;;4.40;2.37;;;;;;;;;;686647;28;975;-69
2023/11/28 00:55:49;;;;;;;4.60;2.50;;;;;;;;;;686512;28;881;-69
2023/11/28 00:56:16;;;;;;;4.00;2.20;;;;;;;;;;686494;28;1708;-69
2023/11/28 00:56:37;;;;;;;4.15;2.35;;;;;;;;;;689604;28;1023;-68
2023/11/28 00:56:58;;;;;;;3.60;2.10;;;;;;;;;;689211;28;1512;-68
2023/11/28 00:57:19;;;;;;;3.53;2.17;;;;;;;;;;687955;28;4260;-69
2023/11/28 00:57:42;;;;;;;4.45;2.47;;;;;;;;;;685885;28;1232;-68
2023/11/28 00:58:02;;;;;;;4.63;2.63;;;;;;;;;;685913;28;1999;-68
2023/11/28 00:58:22;;;;;;;4.40;2.30;;;;;;;;;;687648;28;1175;-69
2023/11/28 00:58:43;;;;;;;4.57;2.20;;;;;;;;;;684558;28;806;-69
2023/11/28 00:59:03;;;;;;;4.20;2.10;;;;;;;;;;682910;28;2026;-68
2023/11/28 00:59:23;;;;;;;4.03;2.20;;;;;;;;;;684555;28;1217;-70
2023/11/28 00:59:44;;;;;;;4.03;2.37;;;;;;;;;;684396;28;1979;-69
2023/11/28 01:00:10;;;;;;;4.20;2.40;;;;;;;;;;686491;28;2773;-69
2023/11/28 01:00:31;;;;;;;4.32;2.40;;;;;;;;;;686524;28;4246;-69
2023/11/28 01:00:53;;;;;;;4.20;2.42;;;;;;;;;;687840;28;1288;-69
2023/11/28 01:01:14;;;;;;;4.15;2.17;;;;;;;;;;687696;28;1820;-68
2023/11/28 01:01:34;;;;;;;4.32;2.30;;;;;;;;;;689478;28;904;-68
2023/11/28 01:01:55;;;;;;;3.83;2.10;;;;;;;;;;692948;28;876;-69
2023/11/28 01:02:15;;;;;;;4.03;2.27;;;;;;;;;;691611;28;1811;-69
2023/11/28 01:02:36;;;;;;;4.72;2.45;;;;;;;;;;688902;28;1243;-68
2023/11/28 01:02:56;;;;;;;4.13;2.03;;;;;;;;;;689543;28;924;-69
2023/11/28 01:03:16;;;;;;;4.03;2.05;;;;;;;;;;688369;28;1742;-67
2023/11/28 01:03:37;;;;;;;4.20;2.30;;;;;;;;;;686552;28;4385;-69
2023/11/28 01:03:57;;;;;;;4.28;2.33;;;;;;;;;;685999;28;3181;-68
2023/11/28 01:04:18;;;;;;;4.25;2.05;;;;;;;;;;684567;28;1464;-69
2023/11/28 01:04:38;;;;;;;3.70;2.00;;;;;;;;;;687367;28;1159;-68
2023/11/28 01:04:59;;;;;;;3.85;2.00;;;;;;;;;;686688;28;984;-69
2023/11/28 01:05:20;;;;;;;3.80;1.93;;;;;;;;;;685755;28;1378;-69
2023/11/28 01:05:41;;;;;;;3.55;2.00;;;;;;;;;;689791;28;849;-68
2023/11/28 01:06:01;;;;;;;3.80;1.90;;;;;;;;;;688917;28;2288;-70
2023/11/28 01:06:21;;;;;;;3.67;2.03;;;;;;;;;;686323;28;4580;-69
2023/11/28 01:06:41;;;;;;;3.75;2.15;;;;;;;;;;684234;28;1440;-69
2023/11/28 01:07:02;;;;;;;4.10;2.20;;;;;;;;;;683458;28;2333;-69
2023/11/28 01:07:23;;;;;;;4.10;2.30;;;;;;;;;;681229;29;1220;-69
2023/11/28 01:07:43;;;;;;;3.93;2.00;;;;;;;;;;681778;28;1341;-74
2023/11/28 01:08:04;;;;;;;3.72;1.95;;;;;;;;;;681248;28;2005;-69
2023/11/28 01:08:24;;;;;;;4.00;2.23;;;;;;;;;;681033;28;1310;-68
2023/11/28 01:08:45;;;;;;;4.37;2.30;;;;;;;;;;677765;29;1203;-68
2023/11/28 01:09:05;;;;;;;3.80;2.10;;;;;;;;;;677107;29;2378;-69
2023/11/28 01:09:26;;;;;;;3.83;2.03;;;;;;;;;;678838;29;4273;-69
2023/11/28 01:09:46;;;;;;;4.00;2.10;;;;;;;;;;681876;28;913;-69
2023/11/28 01:10:07;;;;;;;3.70;2.10;;;;;;;;;;685264;28;1809;-69
2023/11/28 01:10:27;;;;;;;4.00;2.13;;;;;;;;;;688113;28;766;-69
2023/11/28 01:10:50;;;;;;;4.00;2.00;;;;;;;;;;690597;28;900;-69
2023/11/28 01:11:10;;;;;;;3.75;1.92;;;;;;;;;;687451;28;1573;-70
2023/11/28 01:11:30;;;;;;;3.80;2.10;;;;;;;;;;688948;28;5758;-69
2023/11/28 01:11:51;;;;;;;4.30;2.00;;;;;;;;;;689773;28;913;-68
2023/11/28 01:12:11;;;;;;;4.00;2.00;;;;;;;;;;685703;28;2359;-70
2023/11/28 01:12:31;;;;;;;4.18;2.20;;;;;;;;;;686649;28;4231;-71
2023/11/28 01:12:52;;;;;;;4.03;2.23;;;;;;;;;;684652;28;1204;-69
2023/11/28 01:13:12;;;;;;;3.90;2.10;;;;;;;;;;686216;28;1876;-69
2023/11/28 01:13:32;;;;;;;4.20;2.20;;;;;;;;;;683717;28;1148;-72
2023/11/28 01:13:54;;;;;;;3.80;2.10;;;;;;;;;;680765;29;1329;-69
2023/11/28 01:14:14;;;;;;;3.80;2.22;;;;;;;;;;683322;28;951;-69
2023/11/28 01:14:34;;;;;;;3.80;2.13;;;;;;;;;;682303;28;1286;-69
2023/11/28 01:14:55;;;;;;;3.80;2.13;;;;;;;;;;680697;28;1326;-69
2023/11/28 01:15:15;;;;;;;4.53;2.30;;;;;;;;;;680897;28;1779;-69
2023/11/28 01:15:35;;;;;;;4.63;2.40;;;;;;;;;;683364;28;4406;-70
2023/11/28 01:15:55;;;;;;;3.97;2.20;;;;;;;;;;686477;28;936;-70
2023/11/28 01:16:16;;;;;;;3.80;2.07;;;;;;;;;;683357;28;2261;-70
2023/11/28 01:16:36;;;;;;;4.07;2.23;;;;;;;;;;687197;28;940;-70
2023/11/28 01:16:56;;;;;;;4.23;2.30;;;;;;;;;;689685;28;947;-69
2023/11/28 01:17:17;;;;;;;4.00;2.25;;;;;;;;;;688858;28;1105;-69
2023/11/28 01:17:37;;;;;;;4.10;2.30;;;;;;;;;;689480;28;864;-70
2023/11/28 01:17:57;;;;;;;4.00;2.20;;;;;;;;;;689568;28;1141;-70
2023/11/28 01:18:17;;;;;;;4.70;2.20;;;;;;;;;;686029;28;4281;-68
2023/11/28 01:18:39;;;;;;;4.25;2.20;;;;;;;;;;687073;28;1432;-70
2023/11/28 01:19:01;;;;;;;3.90;2.20;;;;;;;;;;681161;28;1256;-70
2023/11/28 01:19:21;;;;;;;3.97;2.40;;;;;;;;;;682444;28;1724;-69
2023/11/28 01:19:41;;;;;;;4.10;2.40;;;;;;;;;;681583;28;1907;-69
2023/11/28 01:20:02;;;;;;;3.90;2.20;;;;;;;;;;680826;28;1847;-70
2023/11/28 01:20:23;;;;;;;4.30;2.20;;;;;;;;;;682078;28;1145;-68
2023/11/28 01:20:44;;;;;;;4.47;2.27;;;;;;;;;;686585;28;1184;-69
2023/11/28 01:21:04;;;;;;;4.78;2.40;;;;;;;;;;682926;28;1768;-69
2023/11/28 01:21:24;;;;;;;4.40;2.10;;;;;;;;;;683180;28;4265;-69
2023/11/28 01:21:45;;;;;;;4.10;2.07;;;;;;;;;;679444;29;975;-69
2023/11/28 01:22:06;;;;;;;4.37;2.30;;;;;;;;;;678418;29;1988;-70
2023/11/28 01:22:27;;;;;;;4.65;2.40;;;;;;;;;;680649;29;1177;-69
2023/11/28 01:22:47;;;;;;;4.60;2.60;;;;;;;;;;680604;28;3421;-68
2023/11/28 01:23:07;;;;;;;4.78;2.53;;;;;;;;;;684256;28;2295;-69
2023/11/28 01:23:27;;;;;;;4.30;2.40;;;;;;;;;;687406;28;1159;-69
2023/11/28 01:23:48;;;;;;;4.70;2.40;;;;;;;;;;689323;28;1143;-70
2023/11/28 01:24:08;;;;;;;4.90;2.57;;;;;;;;;;685226;28;1703;-71
2023/11/28 01:24:28;;;;;;;4.68;2.58;;;;;;;;;;685341;28;4264;-70
2023/11/28 01:24:48;;;;;;;4.57;2.57;;;;;;;;;;686495;28;1431;-70
2023/11/28 01:25:09;;;;;;;4.73;2.50;;;;;;;;;;685326;28;1479;-69
2023/11/28 01:25:29;;;;;;;4.60;2.70;;;;;;;;;;684359;28;1329;-69
2023/11/28 01:25:49;;;;;;;4.83;2.70;;;;;;;;;;681258;28;928;-70
2023/11/28 01:26:10;;;;;;;4.88;2.65;;;;;;;;;;680588;28;1926;-70
2023/11/28 01:26:30;;;;;;;4.73;2.60;;;;;;;;;;681547;28;1343;-68
2023/11/28 01:26:50;;;;;;;4.47;2.50;;;;;;;;;;681990;29;1408;-69
2023/11/28 01:27:10;;;;;;;4.40;2.40;;;;;;;;;;686389;28;1684;-70
2023/11/28 01:27:31;;;;;;;5.07;2.70;;;;;;;;;;685023;28;4235;-69
2023/11/28 01:27:51;;;;;;;5.20;2.70;;;;;;;;;;680444;28;1213;-69
2023/11/28 01:28:11;;;;;;;5.00;2.75;;;;;;;;;;680195;28;1494;-70
2023/11/28 01:28:33;;;;;;;5.10;2.73;;;;;;;;;;681517;28;773;-69
2023/11/28 01:28:53;;;;;;;4.93;2.70;;;;;;;;;;682786;28;822;-68
2023/11/28 01:29:13;;;;;;;4.97;2.90;;;;;;;;;;681498;28;2301;-70
2023/11/28 01:29:35;;;;;;;5.13;3.10;;;;;;;;;;682944;28;707;-69
2023/11/28 01:29:55;;;;;;;5.22;3.10;;;;;;;;;;686676;28;1406;-70
2023/11/28 01:30:15;;;;;;;4.87;2.97;;;;;;;;;;689164;28;1773;-69
2023/11/28 01:30:36;;;;;;;5.10;3.08;;;;;;;;;;688199;28;4214;-70
2023/11/28 01:30:56;;;;;;;4.90;2.97;;;;;;;;;;689279;28;1283;-69
2023/11/28 01:31:16;;;;;;;4.93;2.70;;;;;;;;;;687828;28;1935;-70
2023/11/28 01:31:37;;;;;;;5.97;2.90;;;;;;;;;;686284;28;1305;-69
2023/11/28 01:31:57;;;;;;;5.40;2.90;;;;;;;;;;686948;28;1281;-70
2023/11/28 01:32:17;;;;;;;5.20;2.90;;;;;;;;;;686035;28;2329;-72
2023/11/28 01:32:38;;;;;;;5.45;3.10;;;;;;;;;;686989;28;912;-71
2023/11/28 01:32:58;;;;;;;6.93;3.00;;;;;;;;;;689961;28;853;-69
2023/11/28 01:33:18;;;;;;;6.70;2.97;;;;;;;;;;685849;28;4290;-69
2023/11/28 01:33:38;;;;;;;5.33;3.10;;;;;;;;;;685060;28;872;-70
2023/11/28 01:33:59;;;;;;;5.53;3.30;;;;;;;;;;684832;28;1209;-70
2023/11/28 01:34:19;;;;;;;5.47;3.08;;;;;;;;;;685772;28;1731;-68
2023/11/28 01:34:39;;;;;;;5.90;3.33;;;;;;;;;;685456;28;888;-70
2023/11/28 01:35:00;;;;;;;5.90;3.40;;;;;;;;;;686737;28;977;-69
2023/11/28 01:35:20;;;;;;;6.00;3.30;;;;;;;;;;685859;28;1564;-69
2023/11/28 01:35:40;;;;;;;5.90;3.30;;;;;;;;;;685732;28;1161;-69
2023/11/28 01:36:03;;;;;;;5.90;3.33;;;;;;;;;;684288;28;1444;-69
2023/11/28 01:36:23;;;;;;;6.75;3.60;;;;;;;;;;682496;28;4273;-70
2023/11/28 01:36:44;;;;;;;6.78;3.63;;;;;;;;;;682178;28;1063;-69
2023/11/28 01:37:04;;;;;;;6.97;4.00;;;;;;;;;;682708;28;2011;-70
2023/11/28 01:37:24;;;;;;;7.07;4.20;;;;;;;;;;687511;28;1644;-69
2023/11/28 01:37:45;;;;;;;7.20;4.40;;;;;;;;;;687105;28;1153;-69
2023/11/28 01:38:05;;;;;;;7.27;4.23;;;;;;;;;;688666;28;1809;-69
2023/11/28 01:38:26;;;;;;;7.50;4.30;;;;;;;;;;689431;28;983;-68
2023/11/28 01:38:46;;;;;;;7.57;4.53;;;;;;;;;;687730;28;1163;-69
2023/11/28 01:39:07;;;;;;;7.85;4.70;;;;;;;;;;686960;28;1903;-69
2023/11/28 01:39:28;;;;;;;7.38;4.25;;;;;;;;;;686940;28;4549;-69
2023/11/28 01:39:48;;;;;;;7.35;4.20;;;;;;;;;;682718;28;1910;-69
2023/11/28 01:40:10;;;;;;;7.53;4.40;;;;;;;;;;686250;28;1774;-68
2023/11/28 01:40:30;;;;;;;7.85;4.70;;;;;;;;;;685497;28;836;-69
2023/11/28 01:40:50;;;;;;;7.83;4.90;;;;;;;;;;687087;28;864;-69
2023/11/28 01:41:12;;;;;;;8.13;4.90;;;;;;;;;;685975;28;1957;-68
2023/11/28 01:41:32;;;;;;;7.70;4.80;;;;;;;;;;683974;28;1206;-70
2023/11/28 01:41:52;;;;;;;7.57;4.70;;;;;;;;;;684388;28;1029;-68
2023/11/28 01:42:13;;;;;;;7.63;4.55;;;;;;;;;;685591;28;2483;-69
2023/11/28 01:42:33;;;;;;;8.40;4.90;;;;;;;;;;687693;28;4311;-68
2023/11/28 01:42:53;;;;;;;8.23;4.78;;;;;;;;;;687812;28;935;-69
2023/11/28 01:43:22;;;;;;;8.47;4.80;;;;;;;;;;689302;28;1070;-68
2023/11/28 01:43:42;;;;;;;8.52;4.70;;;;;;;;;;690143;28;1399;-68
2023/11/28 01:44:03;;;;;;;8.27;5.00;;;;;;;;;;689459;28;845;-69
2023/11/28 01:44:23;;;;;;;8.05;5.07;;;;;;;;;;689026;28;1153;-68
2023/11/28 01:44:45;;;;;;;7.67;4.30;;;;;;;;;;689245;28;754;-68
2023/11/28 01:45:06;;;;;;;8.13;4.63;;;;;;;;;;688660;28;2676;-70
2023/11/28 01:45:26;;;;;;;8.20;4.80;;;;;;;;;;686393;28;4494;-73
2023/11/28 01:45:47;;;;;;;6.87;4.33;;;;;;;;;;685809;28;1740;-69
2023/11/28 01:46:07;;;;;;;7.60;4.60;;;;;;;;;;684684;28;1586;-68
2023/11/28 01:46:28;;;;;;;7.47;4.80;;;;;;;;;;685998;28;1689;-68
2023/11/28 01:46:50;;;;;;;8.17;5.10;;;;;;;;;;684211;28;1436;-69
2023/11/28 01:47:10;;;;;;;8.13;4.75;;;;;;;;;;685693;28;1788;-72
2023/11/28 01:47:32;;;;;;;8.40;4.53;;;;;;;;;;684312;28;1385;-70
2023/11/28 01:47:53;;;;;;;8.52;5.13;;;;;;;;;;685168;28;964;-69
2023/11/28 01:48:14;;;;;;;7.93;4.80;;;;;;;;;;685766;28;2326;-69
2023/11/28 01:48:34;;;;;;;7.73;4.80;;;;;;;;;;683682;28;4211;-69
2023/11/28 01:48:55;;;;;;;8.45;5.05;;;;;;;;;;684134;28;1127;-69
2023/11/28 01:49:15;;;;;;;8.87;5.10;;;;;;;;;;687904;28;1754;-70
2023/11/28 01:49:37;;;;;;;8.50;4.73;;;;;;;;;;689402;28;780;-69
2023/11/28 01:49:57;;;;;;;8.77;5.57;;;;;;;;;;689874;28;972;-69
2023/11/28 01:50:18;;;;;;;9.20;5.57;;;;;;;;;;689649;28;1735;-69
2023/11/28 01:50:40;;;;;;;8.70;5.40;;;;;;;;;;689538;28;1079;-69
2023/11/28 01:51:01;;;;;;;8.82;5.35;;;;;;;;;;689513;28;1095;-69
2023/11/28 01:51:21;;;;;;;8.43;4.83;;;;;;;;;;689007;28;5367;-73
2023/11/28 01:51:41;;;;;;;9.13;4.90;;;;;;;;;;689564;28;1317;-68
2023/11/28 01:52:02;;;;;;;9.23;5.55;;;;;;;;;;687882;28;1161;-68
2023/11/28 01:52:22;;;;;;;9.40;5.70;;;;;;;;;;684271;28;1747;-68
2023/11/28 01:52:43;;;;;;;9.47;5.37;;;;;;;;;;684107;28;1556;-71
2023/11/28 01:53:04;;;;;;;9.27;5.50;;;;;;;;;;684122;28;956;-69
2023/11/28 01:53:24;;;;;;;9.70;5.47;;;;;;;;;;682017;28;1347;-69
2023/11/28 01:53:45;;;;;;;8.73;5.20;;;;;;;;;;684052;28;1340;-69
2023/11/28 01:54:05;;;;;;;8.52;5.20;;;;;;;;;;683481;28;1732;-67
2023/11/28 01:54:26;;;;;;;8.73;5.60;;;;;;;;;;684220;28;4253;-68
2023/11/28 01:54:46;;;;;;;8.88;5.43;;;;;;;;;;686667;28;921;-68
2023/11/28 01:55:07;;;;;;;9.60;5.67;;;;;;;;;;685808;28;1496;-68
2023/11/28 01:55:27;;;;;;;9.93;5.63;;;;;;;;;;688401;28;1319;-68
2023/11/28 01:55:48;;;;;;;10.10;5.70;;;;;;;;;;686726;28;1204;-67
2023/11/28 01:56:09;;;;;;;8.73;5.47;;;;;;;;;;687016;28;2276;-67
2023/11/28 01:56:30;;;;;;;9.53;5.80;;;;;;;;;;684836;28;1161;-68
2023/11/28 01:56:51;;;;;;;9.20;5.68;;;;;;;;;;683458;28;1149;-67
2023/11/28 01:57:11;;;;;;;8.65;5.43;;;;;;;;;;683878;28;2399;-68
2023/11/28 01:57:32;;;;;;;9.05;5.47;;;;;;;;;;682427;28;4446;-68
2023/11/28 01:57:52;;;;;;;8.63;5.30;;;;;;;;;;683841;28;1189;-68
2023/11/28 01:58:13;;;;;;;8.70;5.50;;;;;;;;;;683459;28;1781;-68
2023/11/28 01:58:33;;;;;;;9.45;5.53;;;;;;;;;;681852;28;1248;-68
2023/11/28 01:58:54;;;;;;;8.60;5.50;;;;;;;;;;684373;28;1150;-68
2023/11/28 01:59:15;;;;;;;10.07;5.82;;;;;;;;;;684038;28;1037;-68
2023/11/28 01:59:35;;;;;;;9.30;5.63;;;;;;;;;;684817;28;1989;-67
2023/11/28 01:59:56;;;;;;;8.03;5.03;;;;;;;;;;686980;28;1031;-74
2023/11/28 02:00:16;;;;;;;8.23;5.18;;;;;;;;;;680291;28;2441;-67
2023/11/28 02:00:37;;;;;;;8.18;5.22;;;;;;;;;;682970;28;4338;-68
2023/11/28 02:00:58;;;;;;;9.23;5.53;;;;;;;;;;682479;28;1399;-67
2023/11/28 02:01:20;;;;;;;9.10;5.85;;;;;;;;;;682749;28;1901;-68
2023/11/28 02:01:41;;;;;;;9.30;5.88;;;;;;;;;;680741;28;1319;-69
2023/11/28 02:02:02;;;;;;;8.93;5.63;;;;;;;;;;681675;28;858;-68
2023/11/28 02:02:22;;;;;;;9.07;5.63;;;;;;;;;;685106;28;1966;-74
2023/11/28 02:02:43;;;;;;;9.18;5.90;;;;;;;;;;686527;28;881;-68
2023/11/28 02:03:03;;;;;;;9.03;5.73;;;;;;;;;;689485;28;861;-66
2023/11/28 02:03:26;;;;;;;9.15;5.88;;;;;;;;;;686834;28;4285;-68
2023/11/28 02:03:48;;;;;;;9.60;5.80;;;;;;;;;;689759;28;1449;-68
2023/11/28 02:04:08;;;;;;;9.50;5.83;;;;;;;;;;688216;28;1557;-69
2023/11/28 02:04:28;;;;;;;9.30;5.90;;;;;;;;;;688205;28;1268;-69
2023/11/28 02:04:48;;;;;;;9.87;6.13;;;;;;;;;;689728;28;1196;-74
2023/11/28 02:05:11;;;;;;;9.55;5.65;;;;;;;;;;688204;28;1776;-69
2023/11/28 02:05:32;;;;;;;9.23;5.78;;;;;;;;;;689728;28;994;-70
2023/11/28 02:05:53;;;;;;;8.52;5.50;;;;;;;;;;687197;28;1316;-69
2023/11/28 02:06:16;;;;;;;9.70;6.18;;;;;;;;;;684200;28;2393;-68
2023/11/28 02:06:38;;;;;;;9.65;6.15;;;;;;;;;;681752;28;4285;-68
2023/11/28 02:07:00;;;;;;;9.43;5.88;;;;;;;;;;684207;28;1520;-68
2023/11/28 02:07:21;;;;;;;9.75;6.25;;;;;;;;;;686492;28;2212;-69
2023/11/28 02:07:42;;;;;;;9.88;6.40;;;;;;;;;;688943;28;1245;-68
2023/11/28 02:08:03;;;;;;;9.88;6.18;;;;;;;;;;685845;28;1376;-71
2023/11/28 02:08:24;;;;;;;9.45;6.07;;;;;;;;;;685818;28;1534;-73
2023/11/28 02:08:44;;;;;;;9.43;6.13;;;;;;;;;;685879;28;952;-70